sensor_id;sensor_type;location;lat;lon;timestamp;P1;durP1;ratioP1;P2;durP2;ratioP2
38994;SDS011;24769;18.712;99.000;2023-04-08T00:00:22;238.25;;;233.75;;
38994;SDS011;24769;18.712;99.000;2023-04-08T00:02:48;244.25;;;237.00;;
38994;SDS011;24769;18.712;99.000;2023-04-08T00:05:15;247.25;;;239.75;;
38994;SDS011;24769;18.712;99.000;2023-04-08T00:07:42;250.00;;;248.00;;
38994;SDS011;24769;18.712;99.000;2023-04-08T00:10:08;255.25;;;249.75;;
38994;SDS011;24769;18.712;99.000;2023-04-08T00:12:35;240.50;;;237.00;;
38994;SDS011;24769;18.712;99.000;2023-04-08T00:15:02;249.00;;;240.75;;
38994;SDS011;24769;18.712;99.000;2023-04-08T00:17:29;252.25;;;245.00;;
38994;SDS011;24769;18.712;99.000;2023-04-08T00:19:56;214.25;;;214.25;;
38994;SDS011;24769;18.712;99.000;2023-04-08T00:22:22;243.75;;;238.00;;
38994;SDS011;24769;18.712;99.000;2023-04-08T00:24:50;248.25;;;241.25;;
38994;SDS011;24769;18.712;99.000;2023-04-08T00:27:16;257.50;;;253.00;;
38994;SDS011;24769;18.712;99.000;2023-04-08T00:29:43;260.25;;;252.00;;
38994;SDS011;24769;18.712;99.000;2023-04-08T00:32:10;246.50;;;239.00;;
38994;SDS011;24769;18.712;99.000;2023-04-08T00:34:37;266.00;;;257.75;;
38994;SDS011;24769;18.712;99.000;2023-04-08T00:37:04;261.75;;;257.25;;
38994;SDS011;24769;18.712;99.000;2023-04-08T00:39:30;270.00;;;259.50;;
38994;SDS011;24769;18.712;99.000;2023-04-08T00:41:57;280.00;;;274.00;;
38994;SDS011;24769;18.712;99.000;2023-04-08T00:44:24;292.50;;;284.75;;
38994;SDS011;24769;18.712;99.000;2023-04-08T00:46:50;279.00;;;273.75;;
38994;SDS011;24769;18.712;99.000;2023-04-08T00:49:17;298.25;;;289.25;;
38994;SDS011;24769;18.712;99.000;2023-04-08T00:51:44;321.25;;;315.00;;
38994;SDS011;24769;18.712;99.000;2023-04-08T00:54:11;320.50;;;313.50;;
38994;SDS011;24769;18.712;99.000;2023-04-08T00:56:37;297.00;;;289.75;;
38994;SDS011;24769;18.712;99.000;2023-04-08T00:59:04;300.25;;;298.00;;
38994;SDS011;24769;18.712;99.000;2023-04-08T01:09:50;316.75;;;309.00;;
38994;SDS011;24769;18.712;99.000;2023-04-08T01:12:29;327.25;;;319.50;;
38994;SDS011;24769;18.712;99.000;2023-04-08T01:15:04;337.75;;;328.75;;
38994;SDS011;24769;18.712;99.000;2023-04-08T01:17:33;330.50;;;320.25;;
38994;SDS011;24769;18.712;99.000;2023-04-08T01:20:02;367.50;;;356.00;;
38994;SDS011;24769;18.712;99.000;2023-04-08T01:25:08;337.40;;;332.60;;
38994;SDS011;24769;18.712;99.000;2023-04-08T01:27:43;363.00;;;351.50;;
38994;SDS011;24769;18.712;99.000;2023-04-08T01:30:13;344.50;;;334.75;;
38994;SDS011;24769;18.712;99.000;2023-04-08T01:32:41;338.40;;;334.00;;
38994;SDS011;24769;18.712;99.000;2023-04-08T01:35:10;342.00;;;332.25;;
38994;SDS011;24769;18.712;99.000;2023-04-08T01:37:39;357.00;;;339.75;;
38994;SDS011;24769;18.712;99.000;2023-04-08T01:40:08;357.25;;;350.50;;
38994;SDS011;24769;18.712;99.000;2023-04-08T01:42:36;350.25;;;337.00;;
38994;SDS011;24769;18.712;99.000;2023-04-08T01:45:03;313.25;;;307.25;;
38994;SDS011;24769;18.712;99.000;2023-04-08T01:47:31;317.00;;;307.25;;
38994;SDS011;24769;18.712;99.000;2023-04-08T01:50:00;325.50;;;317.50;;
38994;SDS011;24769;18.712;99.000;2023-04-08T01:52:27;325.75;;;320.25;;
38994;SDS011;24769;18.712;99.000;2023-04-08T01:54:57;311.50;;;304.25;;
38994;SDS011;24769;18.712;99.000;2023-04-08T01:57:26;312.25;;;304.00;;
38994;SDS011;24769;18.712;99.000;2023-04-08T01:59:55;324.25;;;320.00;;
38994;SDS011;24769;18.712;99.000;2023-04-08T02:02:26;348.00;;;336.20;;
38994;SDS011;24769;18.712;99.000;2023-04-08T02:04:56;349.40;;;340.00;;
38994;SDS011;24769;18.712;99.000;2023-04-08T02:07:23;350.00;;;344.00;;
38994;SDS011;24769;18.712;99.000;2023-04-08T02:09:50;340.33;;;332.00;;
38994;SDS011;24769;18.712;99.000;2023-04-08T02:12:17;318.00;;;312.75;;
38994;SDS011;24769;18.712;99.000;2023-04-08T02:14:44;301.00;;;289.75;;
38994;SDS011;24769;18.712;99.000;2023-04-08T02:17:12;302.50;;;297.25;;
38994;SDS011;24769;18.712;99.000;2023-04-08T02:19:51;315.00;;;308.00;;
38994;SDS011;24769;18.712;99.000;2023-04-08T02:22:30;312.00;;;310.00;;
38994;SDS011;24769;18.712;99.000;2023-04-08T02:25:00;333.60;;;328.80;;
38994;SDS011;24769;18.712;99.000;2023-04-08T02:27:29;333.80;;;327.40;;
38994;SDS011;24769;18.712;99.000;2023-04-08T02:29:58;329.25;;;317.00;;
38994;SDS011;24769;18.712;99.000;2023-04-08T02:32:33;349.80;;;340.20;;
38994;SDS011;24769;18.712;99.000;2023-04-08T02:35:01;363.25;;;350.50;;
38994;SDS011;24769;18.712;99.000;2023-04-08T02:37:32;369.40;;;352.60;;
38994;SDS011;24769;18.712;99.000;2023-04-08T02:39:59;339.80;;;331.60;;
38994;SDS011;24769;18.712;99.000;2023-04-08T02:42:25;360.40;;;352.60;;
38994;SDS011;24769;18.712;99.000;2023-04-08T02:44:52;378.80;;;361.40;;
38994;SDS011;24769;18.712;99.000;2023-04-08T02:47:19;364.80;;;356.80;;
38994;SDS011;24769;18.712;99.000;2023-04-08T02:49:45;367.40;;;357.20;;
38994;SDS011;24769;18.712;99.000;2023-04-08T02:52:12;344.40;;;335.60;;
38994;SDS011;24769;18.712;99.000;2023-04-08T02:54:39;346.00;;;331.20;;
38994;SDS011;24769;18.712;99.000;2023-04-08T02:57:06;341.00;;;337.20;;
38994;SDS011;24769;18.712;99.000;2023-04-08T02:59:33;322.60;;;313.40;;
38994;SDS011;24769;18.712;99.000;2023-04-08T03:02:02;329.00;;;325.50;;
38994;SDS011;24769;18.712;99.000;2023-04-08T03:04:28;340.60;;;331.80;;
38994;SDS011;24769;18.712;99.000;2023-04-08T03:06:55;288.00;;;283.25;;
38994;SDS011;24769;18.712;99.000;2023-04-08T03:09:22;277.25;;;270.50;;
38994;SDS011;24769;18.712;99.000;2023-04-08T03:11:48;242.25;;;238.75;;
38994;SDS011;24769;18.712;99.000;2023-04-08T03:14:17;233.75;;;232.25;;
38994;SDS011;24769;18.712;99.000;2023-04-08T03:16:44;245.75;;;242.50;;
38994;SDS011;24769;18.712;99.000;2023-04-08T03:19:11;232.00;;;229.25;;
38994;SDS011;24769;18.712;99.000;2023-04-08T03:21:39;236.25;;;232.50;;
38994;SDS011;24769;18.712;99.000;2023-04-08T03:24:06;226.00;;;220.00;;
38994;SDS011;24769;18.712;99.000;2023-04-08T03:26:33;227.00;;;223.00;;
38994;SDS011;24769;18.712;99.000;2023-04-08T03:28:59;219.50;;;215.75;;
38994;SDS011;24769;18.712;99.000;2023-04-08T03:31:26;208.50;;;205.00;;
38994;SDS011;24769;18.712;99.000;2023-04-08T03:33:53;218.25;;;215.75;;
38994;SDS011;24769;18.712;99.000;2023-04-08T03:36:19;227.50;;;219.50;;
38994;SDS011;24769;18.712;99.000;2023-04-08T03:38:46;213.25;;;211.25;;
38994;SDS011;24769;18.712;99.000;2023-04-08T03:41:12;206.00;;;200.80;;
38994;SDS011;24769;18.712;99.000;2023-04-08T03:43:39;209.60;;;205.00;;
38994;SDS011;24769;18.712;99.000;2023-04-08T03:46:06;199.60;;;198.40;;
38994;SDS011;24769;18.712;99.000;2023-04-08T03:48:33;200.60;;;196.60;;
38994;SDS011;24769;18.712;99.000;2023-04-08T03:51:00;185.20;;;178.40;;
38994;SDS011;24769;18.712;99.000;2023-04-08T03:53:26;195.00;;;193.40;;
38994;SDS011;24769;18.712;99.000;2023-04-08T03:55:54;187.80;;;181.80;;
38994;SDS011;24769;18.712;99.000;2023-04-08T03:58:21;187.00;;;185.40;;
38994;SDS011;24769;18.712;99.000;2023-04-08T04:00:48;165.60;;;165.20;;
38994;SDS011;24769;18.712;99.000;2023-04-08T04:03:14;179.00;;;178.20;;
38994;SDS011;24769;18.712;99.000;2023-04-08T04:05:41;172.80;;;172.00;;
38994;SDS011;24769;18.712;99.000;2023-04-08T04:08:08;168.80;;;168.80;;
38994;SDS011;24769;18.712;99.000;2023-04-08T04:10:35;175.80;;;172.80;;
38994;SDS011;24769;18.712;99.000;2023-04-08T04:13:01;170.60;;;167.40;;
38994;SDS011;24769;18.712;99.000;2023-04-08T04:15:28;153.80;;;153.20;;
38994;SDS011;24769;18.712;99.000;2023-04-08T04:17:55;164.60;;;163.60;;
38994;SDS011;24769;18.712;99.000;2023-04-08T04:20:21;154.00;;;154.00;;
38994;SDS011;24769;18.712;99.000;2023-04-08T04:22:50;160.60;;;160.40;;
38994;SDS011;24769;18.712;99.000;2023-04-08T04:25:17;162.20;;;162.20;;
38994;SDS011;24769;18.712;99.000;2023-04-08T04:27:43;160.80;;;159.00;;
38994;SDS011;24769;18.712;99.000;2023-04-08T04:30:10;152.20;;;152.20;;
38994;SDS011;24769;18.712;99.000;2023-04-08T04:32:42;162.20;;;161.20;;
38994;SDS011;24769;18.712;99.000;2023-04-08T04:35:10;152.40;;;150.00;;
38994;SDS011;24769;18.712;99.000;2023-04-08T04:37:37;155.40;;;154.60;;
38994;SDS011;24769;18.712;99.000;2023-04-08T04:40:04;149.40;;;149.40;;
38994;SDS011;24769;18.712;99.000;2023-04-08T04:42:32;149.40;;;148.80;;
38994;SDS011;24769;18.712;99.000;2023-04-08T04:44:58;144.80;;;142.40;;
38994;SDS011;24769;18.712;99.000;2023-04-08T04:47:25;132.60;;;131.60;;
38994;SDS011;24769;18.712;99.000;2023-04-08T04:49:52;123.40;;;120.60;;
38994;SDS011;24769;18.712;99.000;2023-04-08T04:52:18;117.50;;;116.75;;
38994;SDS011;24769;18.712;99.000;2023-04-08T04:54:45;127.75;;;127.50;;
38994;SDS011;24769;18.712;99.000;2023-04-08T04:57:12;121.25;;;120.75;;
38994;SDS011;24769;18.712;99.000;2023-04-08T04:59:38;124.20;;;124.20;;
38994;SDS011;24769;18.712;99.000;2023-04-08T05:02:05;121.50;;;120.00;;
38994;SDS011;24769;18.712;99.000;2023-04-08T05:04:32;125.25;;;124.50;;
38994;SDS011;24769;18.712;99.000;2023-04-08T05:06:58;125.00;;;123.00;;
38994;SDS011;24769;18.712;99.000;2023-04-08T05:09:25;122.40;;;122.20;;
38994;SDS011;24769;18.712;99.000;2023-04-08T05:11:52;123.40;;;122.40;;
38994;SDS011;24769;18.712;99.000;2023-04-08T05:14:18;132.80;;;131.40;;
38994;SDS011;24769;18.712;99.000;2023-04-08T05:16:45;132.80;;;132.80;;
38994;SDS011;24769;18.712;99.000;2023-04-08T05:19:12;135.00;;;134.80;;
38994;SDS011;24769;18.712;99.000;2023-04-08T05:21:38;124.40;;;124.40;;
38994;SDS011;24769;18.712;99.000;2023-04-08T05:24:05;124.00;;;124.00;;
38994;SDS011;24769;18.712;99.000;2023-04-08T05:26:32;132.60;;;132.40;;
38994;SDS011;24769;18.712;99.000;2023-04-08T05:28:58;128.60;;;128.40;;
38994;SDS011;24769;18.712;99.000;2023-04-08T05:31:25;130.60;;;130.60;;
38994;SDS011;24769;18.712;99.000;2023-04-08T05:33:52;134.00;;;133.20;;
38994;SDS011;24769;18.712;99.000;2023-04-08T05:36:19;125.60;;;125.00;;
38994;SDS011;24769;18.712;99.000;2023-04-08T05:38:45;128.00;;;127.25;;
38994;SDS011;24769;18.712;99.000;2023-04-08T05:41:13;132.00;;;132.00;;
38994;SDS011;24769;18.712;99.000;2023-04-08T05:43:39;137.60;;;137.20;;
38994;SDS011;24769;18.712;99.000;2023-04-08T05:46:06;136.00;;;136.00;;
38994;SDS011;24769;18.712;99.000;2023-04-08T05:48:34;131.40;;;131.40;;
38994;SDS011;24769;18.712;99.000;2023-04-08T05:51:01;136.40;;;134.40;;
38994;SDS011;24769;18.712;99.000;2023-04-08T05:53:28;142.00;;;140.60;;
38994;SDS011;24769;18.712;99.000;2023-04-08T05:55:54;145.00;;;145.00;;
38994;SDS011;24769;18.712;99.000;2023-04-08T05:58:21;153.40;;;151.40;;
38994;SDS011;24769;18.712;99.000;2023-04-08T06:00:48;142.20;;;141.80;;
38994;SDS011;24769;18.712;99.000;2023-04-08T06:03:14;135.60;;;133.80;;
38994;SDS011;24769;18.712;99.000;2023-04-08T06:05:41;127.20;;;127.20;;
38994;SDS011;24769;18.712;99.000;2023-04-08T06:08:08;131.40;;;131.40;;
38994;SDS011;24769;18.712;99.000;2023-04-08T06:10:35;140.20;;;139.20;;
38994;SDS011;24769;18.712;99.000;2023-04-08T06:13:01;142.00;;;140.00;;
38994;SDS011;24769;18.712;99.000;2023-04-08T06:15:28;139.40;;;139.40;;
38994;SDS011;24769;18.712;99.000;2023-04-08T06:17:55;137.60;;;136.80;;
38994;SDS011;24769;18.712;99.000;2023-04-08T06:20:22;142.40;;;140.80;;
38994;SDS011;24769;18.712;99.000;2023-04-08T06:22:48;134.20;;;134.20;;
38994;SDS011;24769;18.712;99.000;2023-04-08T06:25:15;137.20;;;136.80;;
38994;SDS011;24769;18.712;99.000;2023-04-08T06:27:42;128.75;;;126.00;;
38994;SDS011;24769;18.712;99.000;2023-04-08T06:30:08;130.80;;;129.20;;
38994;SDS011;24769;18.712;99.000;2023-04-08T06:32:35;133.25;;;133.00;;
38994;SDS011;24769;18.712;99.000;2023-04-08T06:35:02;125.50;;;125.25;;
38994;SDS011;24769;18.712;99.000;2023-04-08T06:37:29;128.00;;;127.60;;
38994;SDS011;24769;18.712;99.000;2023-04-08T06:39:56;129.60;;;129.60;;
38994;SDS011;24769;18.712;99.000;2023-04-08T06:42:22;129.00;;;128.00;;
38994;SDS011;24769;18.712;99.000;2023-04-08T06:44:49;127.00;;;127.00;;
38994;SDS011;24769;18.712;99.000;2023-04-08T06:47:15;128.00;;;127.00;;
38994;SDS011;24769;18.712;99.000;2023-04-08T06:49:42;127.25;;;127.00;;
38994;SDS011;24769;18.712;99.000;2023-04-08T06:52:09;129.50;;;129.50;;
38994;SDS011;24769;18.712;99.000;2023-04-08T06:54:35;120.50;;;120.00;;
38994;SDS011;24769;18.712;99.000;2023-04-08T06:57:02;125.25;;;125.00;;
38994;SDS011;24769;18.712;99.000;2023-04-08T06:59:29;133.25;;;132.00;;
38994;SDS011;24769;18.712;99.000;2023-04-08T07:01:56;126.25;;;125.25;;
38994;SDS011;24769;18.712;99.000;2023-04-08T07:04:22;133.50;;;132.00;;
38994;SDS011;24769;18.712;99.000;2023-04-08T07:06:49;124.00;;;123.50;;
38994;SDS011;24769;18.712;99.000;2023-04-08T07:09:16;126.75;;;126.75;;
38994;SDS011;24769;18.712;99.000;2023-04-08T07:11:43;129.50;;;128.00;;
38994;SDS011;24769;18.712;99.000;2023-04-08T07:14:10;123.50;;;122.50;;
38994;SDS011;24769;18.712;99.000;2023-04-08T07:16:39;118.50;;;118.25;;
38994;SDS011;24769;18.712;99.000;2023-04-08T07:19:05;116.00;;;116.00;;
38994;SDS011;24769;18.712;99.000;2023-04-08T07:21:32;113.75;;;113.75;;
38994;SDS011;24769;18.712;99.000;2023-04-08T07:24:00;114.25;;;114.25;;
38994;SDS011;24769;18.712;99.000;2023-04-08T07:26:27;100.50;;;100.50;;
38994;SDS011;24769;18.712;99.000;2023-04-08T07:28:54;104.00;;;104.00;;
38994;SDS011;24769;18.712;99.000;2023-04-08T07:31:20;97.00;;;97.00;;
38994;SDS011;24769;18.712;99.000;2023-04-08T07:33:47;104.75;;;104.50;;
38994;SDS011;24769;18.712;99.000;2023-04-08T07:36:14;94.50;;;94.00;;
38994;SDS011;24769;18.712;99.000;2023-04-08T07:38:42;92.25;;;92.25;;
38994;SDS011;24769;18.712;99.000;2023-04-08T07:41:09;87.00;;;87.00;;
38994;SDS011;24769;18.712;99.000;2023-04-08T07:43:36;93.50;;;91.75;;
38994;SDS011;24769;18.712;99.000;2023-04-08T07:46:04;103.25;;;103.00;;
38994;SDS011;24769;18.712;99.000;2023-04-08T07:48:32;94.00;;;94.00;;
38994;SDS011;24769;18.712;99.000;2023-04-08T07:51:03;92.25;;;91.50;;
38994;SDS011;24769;18.712;99.000;2023-04-08T07:53:31;101.50;;;99.75;;
38994;SDS011;24769;18.712;99.000;2023-04-08T07:55:58;93.50;;;93.50;;
38994;SDS011;24769;18.712;99.000;2023-04-08T07:58:25;100.00;;;99.50;;
38994;SDS011;24769;18.712;99.000;2023-04-08T08:00:52;93.50;;;93.00;;
38994;SDS011;24769;18.712;99.000;2023-04-08T08:03:19;93.25;;;93.25;;
38994;SDS011;24769;18.712;99.000;2023-04-08T08:05:46;95.50;;;95.25;;
38994;SDS011;24769;18.712;99.000;2023-04-08T08:08:13;91.50;;;91.50;;
38994;SDS011;24769;18.712;99.000;2023-04-08T08:10:39;84.75;;;84.75;;
38994;SDS011;24769;18.712;99.000;2023-04-08T08:13:06;89.25;;;88.50;;
38994;SDS011;24769;18.712;99.000;2023-04-08T08:15:33;85.00;;;85.00;;
38994;SDS011;24769;18.712;99.000;2023-04-08T08:18:00;85.80;;;85.00;;
38994;SDS011;24769;18.712;99.000;2023-04-08T08:20:27;80.25;;;80.00;;
38994;SDS011;24769;18.712;99.000;2023-04-08T08:22:54;77.00;;;76.00;;
38994;SDS011;24769;18.712;99.000;2023-04-08T08:25:21;84.00;;;84.00;;
38994;SDS011;24769;18.712;99.000;2023-04-08T08:27:48;82.40;;;82.40;;
38994;SDS011;24769;18.712;99.000;2023-04-08T08:30:15;85.40;;;84.60;;
38994;SDS011;24769;18.712;99.000;2023-04-08T08:32:44;84.40;;;84.40;;
38994;SDS011;24769;18.712;99.000;2023-04-08T08:35:11;83.00;;;81.00;;
38994;SDS011;24769;18.712;99.000;2023-04-08T08:37:38;79.80;;;79.40;;
38994;SDS011;24769;18.712;99.000;2023-04-08T08:40:05;85.80;;;85.80;;
38994;SDS011;24769;18.712;99.000;2023-04-08T08:42:32;83.60;;;83.60;;
38994;SDS011;24769;18.712;99.000;2023-04-08T08:45:00;76.80;;;74.60;;
38994;SDS011;24769;18.712;99.000;2023-04-08T08:47:28;83.80;;;83.80;;
38994;SDS011;24769;18.712;99.000;2023-04-08T08:49:56;85.80;;;85.80;;
38994;SDS011;24769;18.712;99.000;2023-04-08T08:52:22;85.60;;;85.40;;
38994;SDS011;24769;18.712;99.000;2023-04-08T08:54:56;83.00;;;83.00;;
38994;SDS011;24769;18.712;99.000;2023-04-08T08:57:23;79.00;;;78.40;;
38994;SDS011;24769;18.712;99.000;2023-04-08T08:59:51;80.20;;;79.60;;
38994;SDS011;24769;18.712;99.000;2023-04-08T09:02:25;79.20;;;79.20;;
38994;SDS011;24769;18.712;99.000;2023-04-08T09:05:03;77.60;;;75.60;;
38994;SDS011;24769;18.712;99.000;2023-04-08T09:07:31;78.80;;;78.20;;
38994;SDS011;24769;18.712;99.000;2023-04-08T09:10:01;80.20;;;80.00;;
38994;SDS011;24769;18.712;99.000;2023-04-08T09:12:28;82.60;;;82.60;;
38994;SDS011;24769;18.712;99.000;2023-04-08T09:17:37;82.75;;;82.75;;
38994;SDS011;24769;18.712;99.000;2023-04-08T09:20:08;80.40;;;80.00;;
38994;SDS011;24769;18.712;99.000;2023-04-08T09:22:53;82.00;;;82.00;;
38994;SDS011;24769;18.712;99.000;2023-04-08T09:25:28;81.25;;;80.50;;
38994;SDS011;24769;18.712;99.000;2023-04-08T09:27:57;78.20;;;77.80;;
38994;SDS011;24769;18.712;99.000;2023-04-08T09:30:24;80.25;;;79.75;;
38994;SDS011;24769;18.712;99.000;2023-04-08T09:32:53;79.40;;;79.40;;
38994;SDS011;24769;18.712;99.000;2023-04-08T09:35:22;81.40;;;81.40;;
38994;SDS011;24769;18.712;99.000;2023-04-08T09:37:50;78.00;;;77.20;;
38994;SDS011;24769;18.712;99.000;2023-04-08T09:40:17;81.00;;;81.00;;
38994;SDS011;24769;18.712;99.000;2023-04-08T09:42:44;79.40;;;79.40;;
38994;SDS011;24769;18.712;99.000;2023-04-08T09:45:15;78.40;;;78.20;;
38994;SDS011;24769;18.712;99.000;2023-04-08T09:47:54;78.00;;;77.20;;
38994;SDS011;24769;18.712;99.000;2023-04-08T09:50:31;83.80;;;83.80;;
38994;SDS011;24769;18.712;99.000;2023-04-08T09:53:07;83.50;;;83.25;;
38994;SDS011;24769;18.712;99.000;2023-04-08T09:55:40;80.75;;;80.25;;
38994;SDS011;24769;18.712;99.000;2023-04-08T09:58:14;77.25;;;76.75;;
38994;SDS011;24769;18.712;99.000;2023-04-08T10:00:47;74.00;;;71.00;;
38994;SDS011;24769;18.712;99.000;2023-04-08T10:03:23;80.00;;;80.00;;
38994;SDS011;24769;18.712;99.000;2023-04-08T10:05:55;79.75;;;79.75;;
38994;SDS011;24769;18.712;99.000;2023-04-08T10:08:24;76.50;;;75.50;;
38994;SDS011;24769;18.712;99.000;2023-04-08T10:10:51;83.25;;;82.25;;
38994;SDS011;24769;18.712;99.000;2023-04-08T10:13:20;77.00;;;75.75;;
38994;SDS011;24769;18.712;99.000;2023-04-08T10:15:48;80.00;;;80.00;;
38994;SDS011;24769;18.712;99.000;2023-04-08T10:20:45;75.75;;;74.00;;
38994;SDS011;24769;18.712;99.000;2023-04-08T10:23:14;79.50;;;79.25;;
38994;SDS011;24769;18.712;99.000;2023-04-08T10:25:42;81.00;;;81.00;;
38994;SDS011;24769;18.712;99.000;2023-04-08T10:30:50;80.00;;;80.00;;
38994;SDS011;24769;18.712;99.000;2023-04-08T10:33:32;81.50;;;81.50;;
38994;SDS011;24769;18.712;99.000;2023-04-08T10:36:09;80.75;;;80.75;;
38994;SDS011;24769;18.712;99.000;2023-04-08T10:38:36;88.50;;;88.50;;
38994;SDS011;24769;18.712;99.000;2023-04-08T10:41:08;81.00;;;80.75;;
38994;SDS011;24769;18.712;99.000;2023-04-08T10:43:38;88.00;;;87.50;;
38994;SDS011;24769;18.712;99.000;2023-04-08T10:46:04;83.00;;;83.00;;
38994;SDS011;24769;18.712;99.000;2023-04-08T10:48:34;87.75;;;87.75;;
38994;SDS011;24769;18.712;99.000;2023-04-08T10:51:02;76.50;;;75.00;;
38994;SDS011;24769;18.712;99.000;2023-04-08T10:53:30;93.00;;;92.00;;
38994;SDS011;24769;18.712;99.000;2023-04-08T10:58:50;82.50;;;82.00;;
38994;SDS011;24769;18.712;99.000;2023-04-08T11:01:20;91.75;;;91.25;;
38994;SDS011;24769;18.712;99.000;2023-04-08T11:03:48;87.50;;;87.50;;
38994;SDS011;24769;18.712;99.000;2023-04-08T11:06:15;87.75;;;87.50;;
38994;SDS011;24769;18.712;99.000;2023-04-08T11:08:42;89.75;;;89.75;;
38994;SDS011;24769;18.712;99.000;2023-04-08T11:11:11;89.75;;;89.75;;
38994;SDS011;24769;18.712;99.000;2023-04-08T11:13:40;86.00;;;85.50;;
38994;SDS011;24769;18.712;99.000;2023-04-08T11:16:07;80.50;;;80.25;;
38994;SDS011;24769;18.712;99.000;2023-04-08T11:18:35;92.25;;;91.25;;
38994;SDS011;24769;18.712;99.000;2023-04-08T11:21:07;80.00;;;78.75;;
38994;SDS011;24769;18.712;99.000;2023-04-08T11:23:37;87.75;;;87.25;;
38994;SDS011;24769;18.712;99.000;2023-04-08T11:26:04;87.00;;;86.00;;
38994;SDS011;24769;18.712;99.000;2023-04-08T11:28:31;89.25;;;89.25;;
38994;SDS011;24769;18.712;99.000;2023-04-08T11:30:58;88.75;;;86.75;;
38994;SDS011;24769;18.712;99.000;2023-04-08T11:33:25;93.75;;;93.50;;
38994;SDS011;24769;18.712;99.000;2023-04-08T11:35:51;91.00;;;91.00;;
38994;SDS011;24769;18.712;99.000;2023-04-08T11:38:21;89.00;;;88.25;;
38994;SDS011;24769;18.712;99.000;2023-04-08T11:40:55;88.00;;;88.00;;
38994;SDS011;24769;18.712;99.000;2023-04-08T11:43:23;90.00;;;89.50;;
38994;SDS011;24769;18.712;99.000;2023-04-08T11:45:50;88.75;;;88.50;;
38994;SDS011;24769;18.712;99.000;2023-04-08T11:48:17;91.25;;;89.75;;
38994;SDS011;24769;18.712;99.000;2023-04-08T11:50:44;87.75;;;86.75;;
38994;SDS011;24769;18.712;99.000;2023-04-08T11:53:21;90.50;;;89.50;;
38994;SDS011;24769;18.712;99.000;2023-04-08T11:55:50;96.25;;;94.75;;
38994;SDS011;24769;18.712;99.000;2023-04-08T11:58:17;96.00;;;96.00;;
38994;SDS011;24769;18.712;99.000;2023-04-08T12:00:44;92.00;;;92.00;;
38994;SDS011;24769;18.712;99.000;2023-04-08T12:03:11;91.50;;;91.00;;
38994;SDS011;24769;18.712;99.000;2023-04-08T12:07:19;90.67;;;90.33;;
38994;SDS011;24769;18.712;99.000;2023-04-08T12:09:46;90.50;;;89.75;;
38994;SDS011;24769;18.712;99.000;2023-04-08T12:12:12;88.50;;;88.25;;
38994;SDS011;24769;18.712;99.000;2023-04-08T12:14:39;89.00;;;88.50;;
38994;SDS011;24769;18.712;99.000;2023-04-08T12:17:06;98.50;;;98.25;;
38994;SDS011;24769;18.712;99.000;2023-04-08T12:19:33;95.00;;;94.00;;
38994;SDS011;24769;18.712;99.000;2023-04-08T12:22:00;95.25;;;94.25;;
38994;SDS011;24769;18.712;99.000;2023-04-08T12:24:27;94.20;;;94.20;;
38994;SDS011;24769;18.712;99.000;2023-04-08T12:26:54;98.80;;;98.80;;
38994;SDS011;24769;18.712;99.000;2023-04-08T12:29:21;99.50;;;98.00;;
38994;SDS011;24769;18.712;99.000;2023-04-08T12:31:47;95.25;;;92.25;;
38994;SDS011;24769;18.712;99.000;2023-04-08T12:34:14;97.00;;;97.00;;
38994;SDS011;24769;18.712;99.000;2023-04-08T12:36:41;103.60;;;103.20;;
38994;SDS011;24769;18.712;99.000;2023-04-08T12:39:09;98.00;;;97.00;;
38994;SDS011;24769;18.712;99.000;2023-04-08T12:41:36;102.40;;;101.40;;
38994;SDS011;24769;18.712;99.000;2023-04-08T12:44:02;100.60;;;100.00;;
38994;SDS011;24769;18.712;99.000;2023-04-08T12:46:29;93.80;;;93.80;;
38994;SDS011;24769;18.712;99.000;2023-04-08T12:48:56;98.80;;;96.60;;
38994;SDS011;24769;18.712;99.000;2023-04-08T12:51:23;89.20;;;89.00;;
38994;SDS011;24769;18.712;99.000;2023-04-08T12:53:50;101.60;;;101.60;;
38994;SDS011;24769;18.712;99.000;2023-04-08T12:56:17;92.60;;;92.60;;
38994;SDS011;24769;18.712;99.000;2023-04-08T12:58:44;100.00;;;99.20;;
38994;SDS011;24769;18.712;99.000;2023-04-08T13:01:11;97.80;;;97.80;;
38994;SDS011;24769;18.712;99.000;2023-04-08T13:03:38;97.20;;;95.60;;
38994;SDS011;24769;18.712;99.000;2023-04-08T13:06:06;97.80;;;96.80;;
38994;SDS011;24769;18.712;99.000;2023-04-08T13:08:33;98.00;;;97.00;;
38994;SDS011;24769;18.712;99.000;2023-04-08T13:11:00;93.00;;;91.40;;
38994;SDS011;24769;18.712;99.000;2023-04-08T13:13:27;97.60;;;97.60;;
38994;SDS011;24769;18.712;99.000;2023-04-08T13:15:54;100.20;;;100.20;;
38994;SDS011;24769;18.712;99.000;2023-04-08T13:18:21;98.40;;;97.00;;
38994;SDS011;24769;18.712;99.000;2023-04-08T13:20:47;92.40;;;92.40;;
38994;SDS011;24769;18.712;99.000;2023-04-08T13:23:14;93.00;;;91.60;;
38994;SDS011;24769;18.712;99.000;2023-04-08T13:25:42;101.00;;;100.60;;
38994;SDS011;24769;18.712;99.000;2023-04-08T13:28:12;98.60;;;96.80;;
38994;SDS011;24769;18.712;99.000;2023-04-08T13:30:39;98.20;;;97.40;;
38994;SDS011;24769;18.712;99.000;2023-04-08T13:33:06;97.60;;;97.00;;
38994;SDS011;24769;18.712;99.000;2023-04-08T13:35:33;90.60;;;89.60;;
38994;SDS011;24769;18.712;99.000;2023-04-08T13:38:00;99.20;;;99.00;;
38994;SDS011;24769;18.712;99.000;2023-04-08T13:40:27;99.80;;;98.60;;
38994;SDS011;24769;18.712;99.000;2023-04-08T13:42:54;102.20;;;100.00;;
38994;SDS011;24769;18.712;99.000;2023-04-08T13:45:21;103.60;;;103.20;;
38994;SDS011;24769;18.712;99.000;2023-04-08T13:47:48;100.40;;;99.40;;
38994;SDS011;24769;18.712;99.000;2023-04-08T13:50:15;102.60;;;102.40;;
38994;SDS011;24769;18.712;99.000;2023-04-08T13:52:41;100.80;;;100.80;;
38994;SDS011;24769;18.712;99.000;2023-04-08T13:55:08;103.80;;;103.80;;
38994;SDS011;24769;18.712;99.000;2023-04-08T13:57:35;103.20;;;101.80;;
38994;SDS011;24769;18.712;99.000;2023-04-08T14:00:01;101.00;;;97.20;;
38994;SDS011;24769;18.712;99.000;2023-04-08T14:02:29;108.60;;;106.20;;
38994;SDS011;24769;18.712;99.000;2023-04-08T14:04:56;103.00;;;103.00;;
38994;SDS011;24769;18.712;99.000;2023-04-08T14:07:22;106.80;;;105.40;;
38994;SDS011;24769;18.712;99.000;2023-04-08T14:09:49;110.40;;;108.20;;
38994;SDS011;24769;18.712;99.000;2023-04-08T14:12:16;111.40;;;108.80;;
38994;SDS011;24769;18.712;99.000;2023-04-08T14:14:43;120.20;;;119.80;;
38994;SDS011;24769;18.712;99.000;2023-04-08T14:17:10;111.00;;;110.20;;
38994;SDS011;24769;18.712;99.000;2023-04-08T14:19:37;115.40;;;115.40;;